Time;durP1;ratioP1;P1;durP2;ratioP2;P2;SDS_P1;SDS_P2;PMS_P1;PMS_P2;Temp;Humidity;BMP_temperature;BMP_pressure;BME280_temperature;BME280_humidity;BME280_pressure;Samples;Min_cycle;Max_cycle;Signal;HPM_P1;HPM_P2
2022/04/10 00:00:12;;;;;;;304.58;278.73;;;;;;;18.22;30.83;93642.06;4999061;28;20054;-71
2022/04/10 00:02:58;;;;;;;304.05;278.25;;;;;;;18.22;30.69;93644.78;5006631;28;20061;-71
2022/04/10 00:05:24;;;;;;;319.77;292.40;;;;;;;18.21;30.80;93635.16;4992264;28;20177;-71
2022/04/10 00:07:49;;;;;;;297.60;271.60;;;;;;;18.20;30.80;93636.41;4996590;28;20050;-71
2022/04/10 00:10:14;;;;;;;310.23;283.77;;;;;;;18.19;30.80;93640.31;5004462;28;20056;-71
2022/04/10 00:12:40;;;;;;;290.85;265.63;;;;;;;18.20;30.85;93639.09;4994313;28;20442;-71
2022/04/10 00:15:06;;;;;;;301.00;275.35;;;;;;;18.19;30.90;93640.31;5000100;28;20129;-71
2022/04/10 00:17:32;;;;;;;302.15;276.13;;;;;;;18.20;30.94;93647.22;4997069;28;20101;-71
2022/04/10 00:19:57;;;;;;;302.85;277.02;;;;;;;18.20;30.93;93639.81;4999277;28;20132;-72
2022/04/10 00:22:23;;;;;;;296.30;270.83;;;;;;;18.21;30.68;93649.44;4994113;28;20463;-72
2022/04/10 00:24:48;;;;;;;308.92;282.25;;;;;;;18.22;30.71;93648.22;4994682;28;20041;-72
2022/04/10 00:27:15;;;;;;;304.60;279.05;;;;;;;18.20;30.67;93649.94;5002223;28;20398;-72
2022/04/10 00:29:41;;;;;;;293.42;268.27;;;;;;;18.18;30.62;93649.66;4985940;28;20042;-72
2022/04/10 00:32:07;;;;;;;286.15;261.17;;;;;;;18.19;30.74;93648.44;4999887;28;20673;-72
2022/04/10 00:34:32;;;;;;;302.75;276.98;;;;;;;18.17;30.78;93648.16;4993042;28;20042;-72
2022/04/10 00:36:58;;;;;;;295.27;270.08;;;;;;;18.17;30.81;93646.19;4995725;28;20058;-72
2022/04/10 00:39:24;;;;;;;318.63;291.48;;;;;;;18.17;30.62;93653.56;4996071;28;20085;-71
2022/04/10 00:41:50;;;;;;;305.98;280.02;;;;;;;18.16;30.76;93658.22;4995093;28;20099;-72
2022/04/10 00:44:16;;;;;;;307.50;280.52;;;;;;;18.16;30.75;93652.06;4993359;28;20396;-71
2022/04/10 00:46:42;;;;;;;305.52;279.55;;;;;;;18.14;30.57;93655.22;4995739;28;20042;-70
2022/04/10 00:49:08;;;;;;;301.52;275.23;;;;;;;18.13;30.53;93651.03;4996429;28;20065;-70
2022/04/10 00:51:40;;;;;;;302.45;276.77;;;;;;;18.11;30.67;93642.63;4993248;28;20428;-71
2022/04/10 00:54:17;;;;;;;304.67;279.05;;;;;;;18.11;30.48;93645.34;4997841;28;20046;-71
2022/04/10 00:56:44;;;;;;;300.02;274.40;;;;;;;18.11;30.57;93650.75;4991801;28;20049;-71
2022/04/10 00:59:11;;;;;;;297.85;271.95;;;;;;;18.11;30.59;93653.44;4979726;28;20121;-71
2022/04/10 01:01:38;;;;;;;289.85;264.23;;;;;;;18.09;30.42;93656.63;5001640;28;20052;-71
2022/04/10 01:04:06;;;;;;;301.88;276.25;;;;;;;18.09;30.60;93661.28;4993722;28;20046;-71
2022/04/10 01:06:35;;;;;;;298.48;273.08;;;;;;;18.12;30.51;93657.66;5000767;28;20133;-71
2022/04/10 01:09:04;;;;;;;300.98;275.10;;;;;;;18.13;30.37;93663.81;4981348;28;20050;-72
2022/04/10 01:11:30;;;;;;;301.13;275.43;;;;;;;18.11;30.60;93661.56;4993704;28;20066;-71
2022/04/10 01:13:56;;;;;;;294.38;269.45;;;;;;;18.13;30.44;93661.09;4995473;28;20544;-72
2022/04/10 01:16:22;;;;;;;300.55;274.33;;;;;;;18.10;30.54;93660.81;5000378;28;20057;-71
2022/04/10 01:18:50;;;;;;;291.45;266.17;;;;;;;18.09;30.34;93672.84;5001529;28;20045;-71
2022/04/10 01:21:23;;;;;;;292.27;267.20;;;;;;;18.07;30.30;93661.75;5003268;28;20065;-71
2022/04/10 01:23:50;;;;;;;291.67;266.70;;;;;;;18.09;30.14;93666.69;4998597;28;20087;-70
2022/04/10 01:26:16;;;;;;;290.65;265.13;;;;;;;18.06;30.27;93665.66;4998927;28;20057;-71
2022/04/10 01:29:03;;;;;;;283.63;258.70;;;;;;;18.07;30.42;93675.28;4987654;28;20046;-71
2022/04/10 01:31:30;;;;;;;293.23;268.02;;;;;;;18.08;30.35;93668.66;4992852;28;20041;-71
2022/04/10 01:33:59;;;;;;;289.52;264.13;;;;;;;18.08;30.25;93676.03;4995039;28;20046;-71
2022/04/10 01:36:50;;;;;;;293.13;268.08;;;;;;;18.07;30.35;93658.28;4999063;28;20105;-70
2022/04/10 01:39:16;;;;;;;291.27;265.90;;;;;;;18.08;30.42;93662.50;4980984;28;20061;-72
2022/04/10 01:41:42;;;;;;;295.38;269.55;;;;;;;18.10;30.33;93660.81;4973714;28;20483;-71
2022/04/10 01:44:09;;;;;;;297.13;271.98;;;;;;;18.07;30.41;93664.44;4991809;28;20141;-71
2022/04/10 01:46:36;;;;;;;291.73;266.58;;;;;;;18.06;30.13;93654.09;4996839;28;20121;-71
2022/04/10 01:49:04;;;;;;;290.63;265.73;;;;;;;18.06;30.28;93656.78;4997590;28;20052;-71
2022/04/10 01:51:30;;;;;;;298.40;272.77;;;;;;;18.03;30.28;93666.59;4998452;28;20108;-71
2022/04/10 01:53:56;;;;;;;296.73;271.05;;;;;;;18.04;30.27;93667.34;4980840;28;20542;-71
2022/04/10 01:56:22;;;;;;;290.17;265.05;;;;;;;18.04;30.17;93668.06;5000315;28;20065;-71
2022/04/10 01:58:48;;;;;;;303.20;277.23;;;;;;;18.06;30.27;93670.31;4996365;28;20064;-71
2022/04/10 02:01:16;;;;;;;307.13;280.02;;;;;;;18.04;30.38;93665.38;4988237;28;20451;-69
2022/04/10 02:03:42;;;;;;;296.00;269.77;;;;;;;18.03;30.30;93655.75;4991217;28;20052;-72
2022/04/10 02:06:09;;;;;;;283.30;258.50;;;;;;;18.05;30.33;93660.72;4999714;28;20124;-71
2022/04/10 02:08:36;;;;;;;290.05;264.67;;;;;;;18.04;30.28;93664.63;4993501;28;20047;-71
2022/04/10 02:11:19;;;;;;;291.67;266.08;;;;;;;18.02;30.16;93667.78;4989587;28;20118;-71
2022/04/10 02:16:19;;;;;;;324.27;295.38;;;;;;;18.00;30.45;93667.50;5005794;28;20422;-71
2022/04/10 02:18:46;;;;;;;293.85;268.33;;;;;;;18.00;30.09;93672.91;5013485;28;20045;-71
2022/04/10 02:21:12;;;;;;;300.60;274.75;;;;;;;17.99;30.23;93673.38;5011046;28;20056;-71
2022/04/10 02:23:38;;;;;;;293.13;267.48;;;;;;;17.98;30.27;93671.88;5035115;28;20135;-71
2022/04/10 02:26:04;;;;;;;308.92;282.25;;;;;;;17.98;30.20;93666.47;5029353;28;20053;-71
2022/04/10 02:28:29;;;;;;;299.73;273.05;;;;;;;17.99;30.35;93678.78;5031119;28;20504;-71
2022/04/10 02:30:55;;;;;;;298.85;272.63;;;;;;;17.98;30.13;93680.00;5034978;28;20048;-71
2022/04/10 02:33:21;;;;;;;305.55;278.75;;;;;;;17.97;30.21;93684.66;5025764;28;20127;-71
2022/04/10 02:35:47;;;;;;;297.63;271.60;;;;;;;17.96;30.21;93680.47;5032765;28;20068;-71
2022/04/10 02:38:12;;;;;;;298.13;271.67;;;;;;;17.96;30.20;93679.72;5036082;28;20040;-71
2022/04/10 02:40:37;;;;;;;301.05;274.50;;;;;;;17.97;30.30;93686.63;5035749;28;20429;-71
2022/04/10 02:43:03;;;;;;;297.63;271.65;;;;;;;17.95;30.27;93683.63;5033391;28;20037;-70
2022/04/10 02:45:29;;;;;;;303.73;276.58;;;;;;;17.94;30.51;93690.25;5032882;28;20449;-71
2022/04/10 02:47:55;;;;;;;307.23;279.92;;;;;;;17.93;29.99;93680.63;5028355;28;20748;-71
2022/04/10 02:50:21;;;;;;;292.67;267.17;;;;;;;17.92;30.06;93692.66;5025683;28;20133;-71
2022/04/10 02:52:48;;;;;;;293.52;268.05;;;;;;;17.92;30.12;93689.94;5031885;28;20048;-71
2022/04/10 02:55:14;;;;;;;284.05;258.50;;;;;;;17.93;30.25;93691.44;5032959;28;20553;-72
2022/04/10 02:57:40;;;;;;;291.45;265.83;;;;;;;17.93;30.21;93692.19;5033791;28;20709;-71
2022/04/10 03:00:06;;;;;;;298.98;272.58;;;;;;;17.92;30.21;93698.81;5031314;28;20141;-71
2022/04/10 03:02:32;;;;;;;283.23;258.17;;;;;;;17.92;29.90;93692.66;5030026;28;20559;-71
2022/04/10 03:04:58;;;;;;;293.23;266.98;;;;;;;17.92;30.17;93700.78;5030607;28;20087;-71
2022/04/10 03:07:23;;;;;;;302.95;276.20;;;;;;;17.92;30.09;93701.53;5034634;28;20118;-71
2022/04/10 03:09:51;;;;;;;294.02;268.42;;;;;;;17.90;30.17;93695.06;5015169;28;20064;-71
2022/04/10 03:12:17;;;;;;;282.10;256.80;;;;;;;17.89;30.21;93697.03;5027880;28;20048;-72
2022/04/10 03:14:43;;;;;;;292.88;266.67;;;;;;;17.89;30.01;93691.63;5029831;28;20060;-71
2022/04/10 03:17:08;;;;;;;290.80;265.20;;;;;;;17.89;30.14;93697.03;5026646;28;20493;-72
2022/04/10 03:19:34;;;;;;;289.67;264.17;;;;;;;17.90;30.13;93705.91;5028812;28;20053;-72
2022/04/10 03:22:00;;;;;;;287.33;261.90;;;;;;;17.89;30.21;93702.44;5017970;28;20095;-71
2022/04/10 03:24:25;;;;;;;286.15;260.70;;;;;;;17.89;29.98;93704.41;5030465;28;20056;-70
2022/04/10 03:26:51;;;;;;;293.40;267.33;;;;;;;17.88;30.14;93705.59;5025090;28;20049;-71
2022/04/10 03:29:17;;;;;;;297.85;271.98;;;;;;;17.89;29.88;93699.75;5030938;28;20037;-71
2022/04/10 03:31:43;;;;;;;290.88;265.33;;;;;;;17.90;30.11;93705.91;5034258;28;20857;-71
2022/04/10 03:34:08;;;;;;;289.60;264.70;;;;;;;17.88;30.05;93709.06;5037097;28;20041;-70
2022/04/10 03:36:34;;;;;;;290.17;264.63;;;;;;;17.88;30.31;93703.66;5034957;28;20067;-71
2022/04/10 03:39:00;;;;;;;302.45;276.08;;;;;;;17.88;30.04;93708.31;5033189;28;20471;-71
2022/04/10 03:41:25;;;;;;;292.10;266.45;;;;;;;17.88;30.20;93708.31;5035808;28;20076;-71
2022/04/10 03:43:51;;;;;;;285.38;259.88;;;;;;;17.87;30.12;93715.69;5038611;28;20041;-71
2022/04/10 03:46:16;;;;;;;296.58;270.10;;;;;;;17.86;30.06;93716.88;5030189;28;20056;-71
2022/04/10 03:48:42;;;;;;;287.90;262.67;;;;;;;17.85;30.09;93728.16;5033346;28;20087;-71
2022/04/10 03:51:07;;;;;;;294.90;269.05;;;;;;;17.87;30.01;93726.50;5035603;28;20147;-71
2022/04/10 03:53:34;;;;;;;290.77;265.30;;;;;;;17.89;29.90;93729.50;5036479;28;20428;-71
2022/04/10 03:56:00;;;;;;;283.83;258.35;;;;;;;17.88;29.99;93717.19;5037030;28;20512;-71
2022/04/10 03:58:26;;;;;;;295.30;269.75;;;;;;;17.90;29.96;93727.53;5034314;28;20120;-71
2022/04/10 04:00:51;;;;;;;302.65;276.10;;;;;;;17.93;30.27;93726.63;5024732;28;20045;-71
2022/04/10 04:03:20;;;;;;;307.20;279.73;;;;;;;17.96;30.17;93728.41;5030064;28;20046;-72
2022/04/10 04:05:55;;;;;;;288.08;263.35;;;;;;;17.99;30.21;93724.78;5038518;28;20040;-71
2022/04/10 04:08:21;;;;;;;293.35;267.77;;;;;;;18.01;30.19;93725.81;5039342;28;20045;-71
2022/04/10 04:10:47;;;;;;;302.70;276.52;;;;;;;18.03;30.34;93731.53;5027606;28;20541;-72
2022/04/10 04:13:12;;;;;;;306.08;279.35;;;;;;;18.04;30.37;93729.56;5035816;28;20098;-71
2022/04/10 04:15:38;;;;;;;298.88;273.45;;;;;;;18.08;30.26;93730.88;5031895;28;20084;-72
2022/04/10 04:18:04;;;;;;;299.05;273.40;;;;;;;18.11;30.26;93729.22;5016219;28;20041;-71
2022/04/10 04:20:29;;;;;;;299.00;273.38;;;;;;;18.13;30.26;93736.88;5032366;28;20056;-72
2022/04/10 04:22:55;;;;;;;305.10;278.92;;;;;;;18.15;30.34;93732.50;5034086;28;20335;-71
2022/04/10 04:25:26;;;;;;;313.70;286.55;;;;;;;18.17;30.43;93740.91;5036455;28;20480;-71
2022/04/10 04:27:52;;;;;;;321.00;293.65;;;;;;;18.22;30.35;93744.91;5033066;28;20489;-72
2022/04/10 04:30:17;;;;;;;304.05;278.38;;;;;;;18.24;30.41;93739.78;5035411;28;20068;-71
2022/04/10 04:32:43;;;;;;;310.60;284.55;;;;;;;18.25;30.42;93739.34;5033031;28;20049;-72
2022/04/10 04:35:13;;;;;;;312.35;286.17;;;;;;;18.28;30.28;93743.06;5031912;28;20820;-72
2022/04/10 04:37:40;;;;;;;298.05;272.63;;;;;;;18.31;30.43;93747.56;5011059;28;20048;-72
2022/04/10 04:40:10;;;;;;;295.67;270.40;;;;;;;18.32;30.23;93747.09;5030994;28;20044;-72
2022/04/10 04:42:36;;;;;;;314.00;287.88;;;;;;;18.31;30.06;93748.31;5034572;28;20036;-72
2022/04/10 04:45:02;;;;;;;306.42;280.52;;;;;;;18.33;30.11;93747.84;5029474;28;20046;-72
2022/04/10 04:47:28;;;;;;;307.38;281.45;;;;;;;18.35;30.03;93750.84;5033068;28;20026;-72
2022/04/10 04:49:55;;;;;;;313.02;286.90;;;;;;;18.34;29.82;93755.50;5038229;28;20040;-71
2022/04/10 04:52:20;;;;;;;312.40;286.15;;;;;;;18.36;30.11;93753.09;5032753;28;20041;-72
2022/04/10 04:54:47;;;;;;;305.92;280.13;;;;;;;18.37;30.10;93757.31;5037483;28;20045;-72
2022/04/10 04:57:12;;;;;;;320.15;293.48;;;;;;;18.39;30.08;93754.88;5032999;28;20045;-72
2022/04/10 04:59:38;;;;;;;326.52;299.42;;;;;;;18.38;29.78;93761.50;5027530;28;20038;-72
2022/04/10 05:02:04;;;;;;;323.13;296.20;;;;;;;18.41;29.90;93759.84;5038727;28;20107;-72
2022/04/10 05:04:29;;;;;;;314.35;288.55;;;;;;;18.41;29.84;93767.97;5038207;28;20057;-72
2022/04/10 05:06:57;;;;;;;307.05;281.92;;;;;;;18.42;29.87;93772.91;5031275;28;20051;-72
2022/04/10 05:09:23;;;;;;;308.75;283.30;;;;;;;18.42;29.91;93766.75;5031959;28;20096;-72
2022/04/10 05:11:49;;;;;;;304.52;279.27;;;;;;;18.42;30.03;93775.63;5033536;28;20049;-72
2022/04/10 05:14:14;;;;;;;311.65;285.33;;;;;;;18.41;29.96;93773.38;5035480;28;20052;-72
2022/04/10 05:16:40;;;;;;;319.10;292.70;;;;;;;18.41;29.82;93778.78;5034917;28;20048;-71
2022/04/10 05:19:05;;;;;;;308.40;282.55;;;;;;;18.40;29.70;93777.28;5040316;28;20859;-72
2022/04/10 05:21:31;;;;;;;315.00;288.73;;;;;;;18.41;29.89;93782.25;5034111;28;20044;-72
2022/04/10 05:23:59;;;;;;;317.55;291.25;;;;;;;18.39;29.78;93789.31;5024472;28;20429;-72
2022/04/10 05:26:24;;;;;;;315.80;289.60;;;;;;;18.40;29.56;93786.16;5028424;28;20053;-72
2022/04/10 05:28:50;;;;;;;319.17;292.73;;;;;;;18.43;29.68;93789.91;5035564;28;20037;-72
2022/04/10 05:31:16;;;;;;;307.00;280.85;;;;;;;18.42;29.75;93794.56;5030411;28;20061;-72
2022/04/10 05:33:41;;;;;;;306.88;281.10;;;;;;;18.43;29.89;93798.03;5033955;28;20057;-72
2022/04/10 05:36:07;;;;;;;317.15;291.17;;;;;;;18.43;29.83;93806.16;5033832;28;20490;-72
2022/04/10 05:38:32;;;;;;;312.25;286.63;;;;;;;18.42;29.87;93801.94;5034105;28;20045;-71
2022/04/10 05:40:59;;;;;;;304.80;279.35;;;;;;;18.44;29.90;93813.06;5032214;28;20100;-71
2022/04/10 05:43:25;;;;;;;308.60;283.10;;;;;;;18.43;29.57;93811.56;5033775;28;20059;-70
2022/04/10 05:45:51;;;;;;;306.45;281.27;;;;;;;18.45;30.04;93817.28;5032466;28;20044;-70
2022/04/10 05:48:17;;;;;;;317.73;291.13;;;;;;;18.45;29.86;93817.28;5031750;28;20057;-69
2022/04/10 05:50:43;;;;;;;308.33;282.35;;;;;;;18.41;29.67;93822.09;5028603;28;20126;-70
2022/04/10 05:53:11;;;;;;;307.17;281.77;;;;;;;18.39;29.85;93821.81;5034599;28;20045;-69
2022/04/10 05:55:37;;;;;;;311.55;285.75;;;;;;;18.37;29.93;93826.94;5033310;28;20207;-69
2022/04/10 05:58:03;;;;;;;311.20;284.98;;;;;;;18.36;29.97;93823.47;5037905;28;20056;-70
2022/04/10 06:00:29;;;;;;;310.63;284.80;;;;;;;18.36;29.75;93825.44;5033130;28;20045;-69
2022/04/10 06:02:54;;;;;;;308.05;282.05;;;;;;;18.35;30.03;93832.81;5031614;28;20094;-69
2022/04/10 06:05:21;;;;;;;332.02;303.35;;;;;;;18.34;29.87;93841.41;5029869;28;20079;-69
2022/04/10 06:07:47;;;;;;;306.98;280.92;;;;;;;18.34;29.90;93841.41;5036548;28;20662;-69
2022/04/10 06:10:23;;;;;;;312.25;285.95;;;;;;;18.32;29.85;93841.84;5029984;28;20065;-70
2022/04/10 06:12:49;;;;;;;309.38;283.58;;;;;;;18.35;29.99;93837.47;5029272;28;20033;-69
2022/04/10 06:15:21;;;;;;;307.75;281.85;;;;;;;18.34;30.14;93852.97;5021569;28;20489;-70
2022/04/10 06:17:55;;;;;;;306.25;279.73;;;;;;;18.34;30.07;93860.34;5020037;28;20524;-69
2022/04/10 06:20:24;;;;;;;303.73;277.95;;;;;;;18.31;29.89;93859.31;5033086;28;20049;-71
2022/04/10 06:22:49;;;;;;;301.95;276.23;;;;;;;18.31;30.07;93855.84;5028552;28;20567;-70
2022/04/10 06:25:15;;;;;;;310.90;284.67;;;;;;;18.33;29.97;93861.56;5029149;28;20391;-70
2022/04/10 06:27:40;;;;;;;309.20;283.20;;;;;;;18.35;29.78;93869.97;5036385;28;20040;-70
2022/04/10 06:30:06;;;;;;;310.35;284.30;;;;;;;18.32;30.10;93868.94;5032204;28;20123;-69
2022/04/10 06:32:31;;;;;;;300.83;275.65;;;;;;;18.34;29.84;93874.63;5030768;28;20064;-70
2022/04/10 06:34:57;;;;;;;298.08;272.52;;;;;;;18.35;29.98;93876.13;5017131;28;20498;-70
2022/04/10 06:37:23;;;;;;;306.48;280.65;;;;;;;18.36;29.96;93877.63;5033013;28;20072;-73
2022/04/10 06:39:48;;;;;;;302.13;276.90;;;;;;;18.37;29.90;93876.44;5033938;28;20125;-71
2022/04/10 06:42:14;;;;;;;312.73;286.40;;;;;;;18.37;29.90;93878.38;5037409;28;20702;-71
2022/04/10 06:44:41;;;;;;;310.40;284.52;;;;;;;18.38;30.12;93885.31;5040134;28;20121;-71
2022/04/10 06:47:06;;;;;;;311.90;286.08;;;;;;;18.38;30.03;93886.06;5035112;28;20053;-70
2022/04/10 06:49:32;;;;;;;305.40;279.20;;;;;;;18.41;29.37;93887.09;5032404;28;20044;-71
2022/04/10 06:51:58;;;;;;;312.73;286.13;;;;;;;18.42;29.94;93892.03;5011970;28;20076;-71
2022/04/10 06:54:23;;;;;;;304.58;278.67;;;;;;;18.38;29.86;93879.88;5032632;28;20051;-72
2022/04/10 06:56:49;;;;;;;304.80;278.88;;;;;;;18.39;29.82;93892.97;5031414;28;20425;-73
2022/04/10 06:59:14;;;;;;;298.52;273.20;;;;;;;18.39;29.44;93892.97;5034469;28;20136;-70
2022/04/10 07:01:40;;;;;;;300.67;274.88;;;;;;;18.38;35.48;93902.28;5032432;28;20122;-70
2022/04/10 07:04:06;;;;;;;300.08;274.10;;;;;;;18.57;34.10;93902.22;5022021;28;20147;-69
2022/04/10 07:06:31;;;;;;;266.80;242.40;;;;;;;18.67;34.26;93901.72;5035266;28;20394;-70
2022/04/10 07:08:59;;;;;;;278.95;254.05;;;;;;;18.76;33.99;93903.63;5035352;28;20508;-70
2022/04/10 07:11:25;;;;;;;359.00;330.30;;;;;;;18.81;33.76;93899.53;5035607;28;20518;-71
2022/04/10 07:13:51;;;;;;;368.27;338.98;;;;;;;18.85;34.85;93895.44;5037931;28;20086;-70
2022/04/10 07:16:16;;;;;;;344.30;316.38;;;;;;;18.88;34.03;93897.22;5037118;28;20037;-70
2022/04/10 07:18:42;;;;;;;359.77;331.02;;;;;;;18.82;34.14;93909.19;5039599;28;20118;-69
2022/04/10 07:21:08;;;;;;;350.88;320.30;;;;;;;18.77;32.82;93907.09;5014752;28;20061;-71
2022/04/10 07:23:42;;;;;;;375.60;343.88;;;;;;;18.72;32.33;93909.22;5014645;28;20199;-71
2022/04/10 07:26:09;;;;;;;340.55;311.40;;;;;;;18.72;32.07;93909.22;4997654;28;20410;-71
2022/04/10 07:28:35;;;;;;;354.55;324.83;;;;;;;18.71;31.90;93905.03;5014013;28;20075;-71
2022/04/10 07:31:00;;;;;;;348.45;318.30;;;;;;;18.72;31.50;93908.47;5014396;28;20509;-71
2022/04/10 07:33:26;;;;;;;335.92;306.77;;;;;;;18.67;31.18;93909.09;5016047;28;20037;-71
2022/04/10 07:35:52;;;;;;;340.63;312.05;;;;;;;18.67;31.33;93915.28;5011854;28;20052;-71
2022/04/10 07:38:18;;;;;;;343.75;314.35;;;;;;;18.64;31.13;93912.72;5015879;28;20072;-71
2022/04/10 07:40:44;;;;;;;346.13;316.05;;;;;;;18.63;30.95;93911.97;5013207;28;20140;-73
2022/04/10 07:43:10;;;;;;;347.38;318.13;;;;;;;18.64;31.08;93913.47;5012366;28;20057;-72
2022/04/10 07:48:20;;;;;;;350.88;320.52;;;;;;;18.60;30.71;93915.59;5010238;28;20414;-72
2022/04/10 07:50:46;;;;;;;352.08;321.30;;;;;;;18.57;30.47;93924.63;5010595;28;20037;-72
2022/04/10 07:53:11;;;;;;;346.25;316.67;;;;;;;18.56;30.61;93922.38;5012466;28;20152;-72
2022/04/10 07:55:37;;;;;;;353.67;323.67;;;;;;;18.56;30.65;93925.09;5012284;28;20440;-73
2022/04/10 07:58:03;;;;;;;333.40;304.67;;;;;;;18.57;30.44;93924.63;5015028;28;20046;-71
2022/04/10 08:00:32;;;;;;;351.77;321.20;;;;;;;18.51;30.59;93921.03;5014659;28;20049;-72
2022/04/10 08:02:59;;;;;;;345.77;315.98;;;;;;;18.49;30.44;93920.75;4996029;28;20148;-71
2022/04/10 08:05:24;;;;;;;355.77;325.00;;;;;;;18.47;30.44;93928.59;5015169;28;20053;-72
2022/04/10 08:07:50;;;;;;;333.23;305.27;;;;;;;18.46;30.54;93926.34;5013613;28;20045;-69
2022/04/10 08:10:16;;;;;;;328.48;301.17;;;;;;;18.46;30.41;93929.78;5015867;28;20064;-69
2022/04/10 08:12:43;;;;;;;361.92;331.50;;;;;;;18.43;30.46;93930.72;5011321;28;20049;-69
2022/04/10 08:15:13;;;;;;;345.73;316.23;;;;;;;18.45;30.47;93928.28;5015140;28;20049;-73
2022/04/10 08:17:39;;;;;;;347.85;318.40;;;;;;;18.47;30.49;93928.59;5013101;28;20698;-71
2022/04/10 08:20:07;;;;;;;354.05;324.00;;;;;;;18.46;30.44;93927.09;5014030;28;20045;-71
2022/04/10 08:22:33;;;;;;;358.77;327.90;;;;;;;18.44;30.21;93926.78;5010636;28;20214;-70
2022/04/10 08:25:04;;;;;;;350.33;319.95;;;;;;;18.37;30.24;93924.41;5015055;28;20045;-71
2022/04/10 08:27:30;;;;;;;355.90;324.83;;;;;;;18.40;30.14;93932.38;5011477;28;20048;-72
2022/04/10 08:29:57;;;;;;;347.38;317.63;;;;;;;18.41;30.29;93931.16;4993218;28;20512;-71
2022/04/10 08:32:23;;;;;;;349.67;319.52;;;;;;;18.44;30.37;93932.94;5015498;28;20108;-71
2022/04/10 08:34:49;;;;;;;346.25;316.77;;;;;;;18.46;30.34;93937.16;5014662;28;20050;-72
2022/04/10 08:37:16;;;;;;;356.85;325.92;;;;;;;18.47;30.24;93933.25;5009144;28;20059;-72
2022/04/10 08:39:42;;;;;;;340.00;310.15;;;;;;;18.44;30.06;93927.53;5011903;28;20068;-72
2022/04/10 08:42:11;;;;;;;348.55;319.02;;;;;;;18.46;30.28;93935.19;5013554;28;20048;-71
2022/04/10 08:44:36;;;;;;;347.45;317.98;;;;;;;18.43;30.03;93928.00;4995177;28;20160;-74
2022/04/10 08:47:03;;;;;;;349.30;319.27;;;;;;;18.46;30.24;93935.19;5012465;28;20041;-71
2022/04/10 08:49:30;;;;;;;348.83;318.75;;;;;;;18.42;30.23;93940.78;5008937;28;20098;-72
2022/04/10 08:51:58;;;;;;;356.08;325.70;;;;;;;18.44;30.25;93938.38;5012784;28;20077;-71
2022/04/10 08:54:24;;;;;;;351.00;321.50;;;;;;;18.48;29.96;93942.88;5014149;28;20631;-73
2022/04/10 08:56:50;;;;;;;353.83;323.98;;;;;;;18.47;30.07;93947.53;5010303;28;20160;-73
2022/04/10 08:59:20;;;;;;;351.23;321.60;;;;;;;18.52;30.29;93952.34;5012422;28;20066;-72
2022/04/10 09:01:50;;;;;;;342.80;313.20;;;;;;;18.53;30.38;93947.66;5011009;28;20056;-72
2022/04/10 09:04:16;;;;;;;351.58;321.30;;;;;;;18.51;30.26;93958.97;5010371;28;20141;-72
2022/04/10 09:06:55;;;;;;;353.00;322.05;;;;;;;18.50;30.26;93964.81;5009688;28;20129;-73
2022/04/10 09:09:20;;;;;;;368.92;337.08;;;;;;;18.53;30.37;93953.84;5010789;28;20064;-73
2022/04/10 09:11:46;;;;;;;327.15;299.88;;;;;;;18.54;30.34;93952.63;5012516;28;20044;-73
2022/04/10 09:14:20;;;;;;;362.50;330.73;;;;;;;18.58;30.35;93950.50;5011614;28;20052;-73
2022/04/10 09:16:45;;;;;;;369.27;336.60;;;;;;;18.53;30.42;93945.72;4996464;28;20133;-72
2022/04/10 09:19:12;;;;;;;352.25;321.90;;;;;;;18.51;30.36;93958.97;5004514;28;20511;-73
2022/04/10 09:21:43;;;;;;;373.58;342.00;;;;;;;18.46;30.11;93954.16;5003561;28;20394;-73
2022/04/10 09:24:10;;;;;;;355.83;325.50;;;;;;;18.40;29.99;93943.19;5003824;28;20058;-74
2022/04/10 09:26:56;;;;;;;348.00;319.55;;;;;;;18.44;29.83;93954.63;5012034;28;20178;-73
2022/04/10 09:29:26;;;;;;;351.10;321.70;;;;;;;18.43;29.65;93947.69;4999159;28;20466;-74
2022/04/10 09:31:57;;;;;;;346.73;317.83;;;;;;;18.43;29.75;93945.00;5015297;28;20133;-71
2022/04/10 09:34:25;;;;;;;365.85;334.50;;;;;;;18.44;29.70;93945.75;4996412;28;20533;-72
2022/04/10 09:37:01;;;;;;;343.98;315.50;;;;;;;18.50;29.61;93948.56;4992852;28;20103;-72
2022/04/10 09:39:37;;;;;;;340.90;311.67;;;;;;;18.52;29.63;93943.47;5016119;28;20045;-74
2022/04/10 09:42:08;;;;;;;350.92;321.13;;;;;;;18.53;29.53;93945.72;5015082;28;20559;-74
2022/04/10 09:44:35;;;;;;;332.35;303.98;;;;;;;18.51;29.53;93939.25;5015949;28;20044;-73
2022/04/10 09:47:06;;;;;;;354.40;324.27;;;;;;;18.50;29.37;93943.16;5012047;28;20053;-73
2022/04/10 09:49:33;;;;;;;353.45;323.77;;;;;;;18.51;29.54;93936.53;5013763;28;20056;-73
2022/04/10 09:52:07;;;;;;;367.00;335.77;;;;;;;18.51;29.49;93942.72;5013058;28;20053;-72
2022/04/10 09:54:39;;;;;;;347.95;318.63;;;;;;;18.48;29.47;93929.34;5014470;28;20049;-72
2022/04/10 09:57:16;;;;;;;339.63;311.70;;;;;;;18.51;29.61;93948.13;5012297;28;20045;-72
2022/04/10 09:59:51;;;;;;;331.40;302.90;;;;;;;18.48;29.58;93945.56;5012652;28;20151;-73
2022/04/10 10:02:24;;;;;;;345.20;315.35;;;;;;;18.47;29.56;93946.78;5014888;28;20053;-72
2022/04/10 10:04:50;;;;;;;349.40;319.90;;;;;;;18.47;29.56;93938.66;5013881;28;20037;-72
2022/04/10 10:07:18;;;;;;;345.30;317.33;;;;;;;18.44;29.58;93960.03;5012663;28;21677;-72
2022/04/10 10:09:46;;;;;;;360.95;330.33;;;;;;;18.34;29.29;93961.28;5012254;28;20510;-73
2022/04/10 10:12:11;;;;;;;355.88;325.63;;;;;;;18.20;29.34;93959.22;5009683;28;20057;-72
2022/04/10 10:14:39;;;;;;;364.50;333.63;;;;;;;18.16;29.08;93955.94;5012491;28;20072;-73
2022/04/10 10:17:06;;;;;;;362.27;331.30;;;;;;;18.18;29.21;93958.94;5009911;28;20048;-72
2022/04/10 10:19:34;;;;;;;358.83;328.13;;;;;;;18.23;29.09;93960.25;5012083;28;20077;-73
2022/04/10 10:22:04;;;;;;;356.85;326.25;;;;;;;18.27;29.16;93960.84;5012840;28;20060;-71
2022/04/10 10:24:45;;;;;;;371.55;339.60;;;;;;;18.21;28.72;93962.66;5007891;28;20053;-72
2022/04/10 10:27:23;;;;;;;366.98;335.90;;;;;;;18.19;28.91;93959.69;5010506;28;20729;-74
2022/04/10 10:29:58;;;;;;;352.65;321.85;;;;;;;18.19;28.85;93960.44;5010139;28;20061;-73
2022/04/10 10:32:43;;;;;;;365.30;333.83;;;;;;;18.17;28.96;93956.69;5000430;28;22929;-72
2022/04/10 10:35:26;;;;;;;344.60;314.33;;;;;;;18.17;29.07;93946.63;4995196;28;20064;-73
2022/04/10 10:37:53;;;;;;;351.15;319.75;;;;;;;18.18;28.92;93945.41;5002890;28;20121;-73
2022/04/10 10:40:21;;;;;;;328.48;300.73;;;;;;;18.18;29.11;93945.41;5006221;28;20059;-72
2022/04/10 10:42:51;;;;;;;350.80;320.95;;;;;;;18.20;29.06;93950.38;5011705;28;20124;-73
2022/04/10 10:45:37;;;;;;;354.60;324.20;;;;;;;18.20;28.83;93944.94;5009887;28;20045;-72
2022/04/10 10:48:23;;;;;;;344.40;314.30;;;;;;;18.22;28.99;93958.75;5010721;28;20097;-72
2022/04/10 10:50:50;;;;;;;340.88;311.10;;;;;;;18.24;29.17;93959.03;5011662;28;20083;-73
2022/04/10 10:53:17;;;;;;;355.90;324.70;;;;;;;18.22;28.96;93956.03;4990124;28;20158;-69
2022/04/10 10:55:44;;;;;;;347.88;317.40;;;;;;;18.20;29.14;93950.38;5011115;28;20118;-73
2022/04/10 10:58:14;;;;;;;344.05;314.52;;;;;;;18.19;28.88;93955.03;5011088;28;20059;-71
2022/04/10 11:00:39;;;;;;;347.05;316.98;;;;;;;18.21;28.95;93954.53;5011986;28;20052;-71
2022/04/10 11:03:09;;;;;;;341.55;312.23;;;;;;;18.20;28.65;93944.94;5008962;28;20057;-71
2022/04/10 11:05:36;;;;;;;362.20;330.92;;;;;;;18.09;28.93;93953.56;5003708;28;20559;-70
2022/04/10 11:08:03;;;;;;;327.35;299.90;;;;;;;18.15;28.51;93953.69;5012803;28;20045;-70